createdAt,value
2022-08-30T00:00:16.556Z,30.70
2022-08-30T00:03:24.140Z,35.23
2022-08-30T00:06:31.739Z,43.90
2022-08-30T00:09:36.857Z,36.50
2022-08-30T00:12:42.725Z,28.05
2022-08-30T00:15:49.123Z,29.60
2022-08-30T00:18:56.388Z,28.98
2022-08-30T00:22:04.465Z,28.25
2022-08-30T00:25:10.549Z,29.87
2022-08-30T00:28:17.124Z,29.15
2022-08-30T00:31:23.012Z,24.23
2022-08-30T00:34:28.637Z,25.95
2022-08-30T00:37:33.975Z,29.02
2022-08-30T00:40:39.921Z,26.33
2022-08-30T00:43:47.172Z,29.72
2022-08-30T00:46:53.696Z,27.42
2022-08-30T00:50:04.058Z,27.27
2022-08-30T00:53:11.960Z,27.40
2022-08-30T00:56:18.338Z,38.23
2022-08-30T00:59:24.507Z,30.77
2022-08-30T01:02:32.462Z,27.37
2022-08-30T01:05:39.795Z,25.17
2022-08-30T01:08:46.270Z,24.43
2022-08-30T01:11:52.659Z,24.70
2022-08-30T01:14:59.300Z,26.02
2022-08-30T01:18:06.876Z,21.70
2022-08-30T01:21:42.250Z,24.47
2022-08-30T01:24:48.214Z,25.45
2022-08-30T01:28:01.544Z,24.77
2022-08-30T01:31:06.974Z,23.57
2022-08-30T01:34:14.701Z,23.22
2022-08-30T01:37:21.880Z,23.67
2022-08-30T01:40:29.526Z,21.75
2022-08-30T01:43:35.738Z,21.05
2022-08-30T01:46:46.623Z,20.95
2022-08-30T01:49:53.912Z,23.55
2022-08-30T01:53:00.072Z,22.20
2022-08-30T01:56:05.520Z,23.10
2022-08-30T01:59:11.993Z,28.70
2022-08-30T02:02:20.028Z,28.38
2022-08-30T02:05:26.269Z,24.25
2022-08-30T02:08:32.635Z,24.15
2022-08-30T02:11:39.713Z,22.42
2022-08-30T02:14:45.485Z,23.65
2022-08-30T02:17:51.523Z,24.70
2022-08-30T02:20:57.494Z,22.73
2022-08-30T02:24:05.604Z,24.37
2022-08-30T02:27:11.236Z,23.57
2022-08-30T02:30:18.234Z,24.77
2022-08-30T02:33:24.055Z,26.55
2022-08-30T02:36:29.549Z,21.37
2022-08-30T02:39:35.183Z,28.42
2022-08-30T02:42:40.941Z,24.23
2022-08-30T02:45:47.485Z,24.60
2022-08-30T02:48:53.379Z,20.08
2022-08-30T02:51:59.423Z,22.67
2022-08-30T02:55:06.420Z,28.20
2022-08-30T02:58:12.224Z,26.85
2022-08-30T03:01:17.458Z,22.10
2022-08-30T03:04:26.379Z,53.40
2022-08-30T03:07:30.789Z,70.47
2022-08-30T03:10:36.013Z,62.58
2022-08-30T03:13:42.894Z,78.70
2022-08-30T03:16:49.492Z,58.50
2022-08-30T03:19:56.434Z,63.60
2022-08-30T03:23:01.364Z,48.35
2022-08-30T03:26:07.968Z,48.65
2022-08-30T03:29:21.882Z,38.42
2022-08-30T03:32:29.492Z,33.13
2022-08-30T03:35:36.063Z,29.00
2022-08-30T03:38:43.258Z,26.60
2022-08-30T03:41:48.608Z,25.27
2022-08-30T03:44:59.021Z,28.20
2022-08-30T03:48:04.520Z,30.23
2022-08-30T03:51:14.486Z,36.33
2022-08-30T03:54:24.200Z,36.77
2022-08-30T03:57:28.590Z,39.50
2022-08-30T04:00:33.568Z,40.90
2022-08-30T04:03:49.719Z,36.80
2022-08-30T04:06:57.983Z,33.10
2022-08-30T04:10:03.841Z,37.13
2022-08-30T04:13:10.309Z,35.70
2022-08-30T04:16:17.761Z,35.50
2022-08-30T04:19:23.348Z,33.75
2022-08-30T04:22:29.262Z,31.68
2022-08-30T04:25:35.050Z,30.27
2022-08-30T04:28:41.860Z,38.28
2022-08-30T04:31:47.961Z,34.15
2022-08-30T04:34:55.004Z,32.23
2022-08-30T04:38:01.882Z,33.48
2022-08-30T04:41:08.564Z,31.37
2022-08-30T04:44:19.311Z,33.30
2022-08-30T04:47:24.980Z,32.83
2022-08-30T04:50:34.293Z,32.83
2022-08-30T04:53:42.745Z,27.48
2022-08-30T04:56:51.163Z,27.30
2022-08-30T04:59:57.407Z,24.43
2022-08-30T05:03:03.696Z,30.92
2022-08-30T05:06:09.118Z,30.68
2022-08-30T05:09:14.648Z,36.30
2022-08-30T05:12:20.409Z,27.22
2022-08-30T05:15:27.543Z,30.40
2022-08-30T05:18:33.745Z,23.62
2022-08-30T05:21:51.652Z,26.80
2022-08-30T05:25:17.119Z,31.12
2022-08-30T05:28:12.038Z,34.33
2022-08-30T05:31:43.311Z,25.88
2022-08-30T05:34:58.050Z,23.30
2022-08-30T05:38:04.216Z,24.15
2022-08-30T05:41:10.979Z,26.80
2022-08-30T05:44:17.202Z,28.10
2022-08-30T05:47:29.553Z,24.67
2022-08-30T05:50:43.545Z,27.45
2022-08-30T05:53:50.179Z,22.48
2022-08-30T05:56:57.199Z,25.12
2022-08-30T06:00:02.912Z,26.12
2022-08-30T06:03:12.600Z,24.25
2022-08-30T06:06:18.640Z,26.60
2022-08-30T06:09:24.936Z,23.87
2022-08-30T06:12:31.384Z,21.73
2022-08-30T06:15:38.245Z,24.92
2022-08-30T06:18:44.883Z,26.97
2022-08-30T06:21:51.393Z,21.23
2022-08-30T06:24:58.293Z,28.07
2022-08-30T06:28:07.302Z,26.25
2022-08-30T06:31:23.662Z,22.80
2022-08-30T06:34:54.130Z,24.32
2022-08-30T06:38:10.239Z,23.80
2022-08-30T06:41:27.200Z,22.62
2022-08-30T06:44:34.062Z,28.65
2022-08-30T06:47:42.452Z,19.90
2022-08-30T06:50:53.218Z,23.62
2022-08-30T06:54:00.777Z,23.40
2022-08-30T06:57:06.683Z,24.72
2022-08-30T07:00:16.443Z,21.68
2022-08-30T07:03:21.795Z,24.77
2022-08-30T07:06:31.653Z,25.08
2022-08-30T07:09:39.660Z,21.35
2022-08-30T07:12:48.347Z,25.48
2022-08-30T07:16:09.746Z,20.15
2022-08-30T07:23:40.287Z,21.85
2022-08-30T07:27:01.760Z,17.67
2022-08-30T07:30:41.456Z,18.85
2022-08-30T07:33:48.165Z,19.45
2022-08-30T07:36:55.507Z,18.45
2022-08-30T07:40:02.521Z,14.85
2022-08-30T07:43:12.114Z,16.07
2022-08-30T07:46:21.978Z,19.35
2022-08-30T07:49:27.422Z,14.33
2022-08-30T07:52:34.158Z,15.75
2022-08-30T07:55:41.189Z,18.87
2022-08-30T07:58:49.385Z,14.70
2022-08-30T08:01:55.231Z,15.75
2022-08-30T08:05:03.359Z,18.23
2022-08-30T08:08:22.583Z,18.50
2022-08-30T08:15:08.771Z,15.13
2022-08-30T08:18:14.449Z,15.88
2022-08-30T08:21:21.225Z,17.77
2022-08-30T08:24:27.185Z,16.35
2022-08-30T08:27:34.760Z,16.67
2022-08-30T08:30:45.104Z,17.12
2022-08-30T08:40:32.865Z,14.78
2022-08-30T08:43:49.951Z,17.10
2022-08-30T08:47:15.902Z,13.18
2022-08-30T08:50:28.028Z,18.62
2022-08-30T08:53:45.936Z,17.07
2022-08-30T08:56:52.047Z,13.53
2022-08-30T09:00:03.311Z,13.88
2022-08-30T09:03:14.050Z,17.27
2022-08-30T09:06:45.086Z,16.45
2022-08-30T09:09:53.714Z,14.58
2022-08-30T09:13:02.300Z,15.75
2022-08-30T09:16:13.932Z,14.10
2022-08-30T09:19:19.920Z,16.62
2022-08-30T09:22:51.453Z,11.80
2022-08-30T09:26:17.923Z,14.33
2022-08-30T09:29:27.597Z,11.95
2022-08-30T09:32:54.346Z,18.05
2022-08-30T09:36:05.431Z,12.40
2022-08-30T09:39:16.470Z,14.35
2022-08-30T09:42:36.722Z,14.00
2022-08-30T09:45:49.688Z,14.55
2022-08-30T09:49:02.989Z,14.28
2022-08-30T09:52:23.486Z,14.83
2022-08-30T09:55:38.162Z,18.52
2022-08-30T09:58:54.967Z,15.13
2022-08-30T10:02:23.150Z,13.78
2022-08-30T10:05:57.884Z,13.03
2022-08-30T10:09:26.746Z,13.32
2022-08-30T10:12:38.311Z,16.57
2022-08-30T10:16:18.492Z,15.23
2022-08-30T10:19:40.144Z,20.35
2022-08-30T10:22:50.356Z,12.98
2022-08-30T10:26:10.565Z,14.63
2022-08-30T10:29:32.337Z,14.43
2022-08-30T10:32:52.230Z,15.10
2022-08-30T10:36:14.864Z,14.38
2022-08-30T10:39:20.996Z,20.43
2022-08-30T10:42:37.970Z,16.27
2022-08-30T10:45:41.113Z,17.92
2022-08-30T10:48:54.881Z,18.73
2022-08-30T10:52:27.837Z,16.23
2022-08-30T10:58:45.978Z,19.37
2022-08-30T11:02:21.689Z,20.25
2022-08-30T11:09:15.702Z,26.00
2022-08-30T11:12:52.474Z,18.57
2022-08-30T11:16:24.144Z,17.07
2022-08-30T11:19:53.139Z,17.00
2022-08-30T11:23:01.414Z,17.42
2022-08-30T11:26:22.708Z,14.10
2022-08-30T11:29:53.238Z,16.17
2022-08-30T11:33:28.779Z,13.72
2022-08-30T11:36:51.879Z,14.50
2022-08-30T11:40:07.081Z,12.23
2022-08-30T11:43:28.645Z,16.40
2022-08-30T11:46:47.827Z,14.45
2022-08-30T11:50:11.233Z,11.57
2022-08-30T11:54:00.251Z,15.23
2022-08-30T11:57:44.199Z,12.78
2022-08-30T12:00:57.365Z,9.65
2022-08-30T12:04:25.045Z,11.33
2022-08-30T12:08:08.044Z,10.95
2022-08-30T12:11:18.305Z,10.68
2022-08-30T12:14:24.346Z,11.33
2022-08-30T12:18:18.694Z,9.25
2022-08-30T12:21:44.670Z,10.25
2022-08-30T12:27:54.119Z,10.25
2022-08-30T12:31:00.669Z,10.50
2022-08-30T12:34:09.705Z,9.40
2022-08-30T12:37:37.707Z,7.95
2022-08-30T12:40:48.295Z,8.30
2022-08-30T12:44:00.223Z,8.33
2022-08-30T12:47:15.680Z,9.95
2022-08-30T12:50:22.686Z,10.35
2022-08-30T12:53:30.737Z,10.08
2022-08-30T12:56:49.940Z,10.63
2022-08-30T13:00:04.508Z,9.35
2022-08-30T13:03:15.989Z,10.13
2022-08-30T13:06:21.843Z,11.55
2022-08-30T13:09:38.042Z,10.55
2022-08-30T13:12:54.899Z,12.95
2022-08-30T13:19:55.669Z,13.08
2022-08-30T13:23:24.090Z,11.28
2022-08-30T13:26:34.001Z,9.23
2022-08-30T13:29:44.857Z,8.03
2022-08-30T13:32:54.288Z,12.68
2022-08-30T13:36:03.297Z,8.47
2022-08-30T13:39:10.192Z,9.15
2022-08-30T13:42:32.910Z,7.22
2022-08-30T13:45:43.024Z,26.52
2022-08-30T13:48:34.103Z,7.85
2022-08-30T13:51:49.988Z,7.67
2022-08-30T13:54:50.345Z,7.58
2022-08-30T13:57:59.900Z,9.78
2022-08-30T14:01:07.068Z,9.95
2022-08-30T14:04:15.426Z,7.85
2022-08-30T14:07:20.925Z,7.97
2022-08-30T14:10:32.263Z,9.80
2022-08-30T14:14:14.157Z,7.72
2022-08-30T14:16:46.717Z,8.95
2022-08-30T14:19:51.875Z,11.53
2022-08-30T14:23:01.370Z,7.20
2022-08-30T14:26:08.521Z,6.78
2022-08-30T14:29:14.019Z,11.65
2022-08-30T14:32:20.505Z,10.28
2022-08-30T14:35:27.474Z,10.68
2022-08-30T14:38:33.173Z,8.38
2022-08-30T14:41:43.476Z,10.90
2022-08-30T14:44:56.088Z,7.55
2022-08-30T14:48:01.620Z,13.30
2022-08-30T14:51:09.741Z,11.15
2022-08-30T14:54:18.895Z,12.23
2022-08-30T14:57:24.750Z,7.12
2022-08-30T15:00:34.146Z,7.50
2022-08-30T15:03:43.444Z,7.75
2022-08-30T15:06:51.243Z,9.68
2022-08-30T15:09:58.022Z,11.03
2022-08-30T15:13:05.920Z,11.73
2022-08-30T15:16:13.779Z,11.57
2022-08-30T15:19:21.703Z,9.35
2022-08-30T15:22:28.513Z,10.65
2022-08-30T15:25:34.189Z,8.88
2022-08-30T15:28:42.030Z,21.07
2022-08-30T15:31:49.807Z,25.95
2022-08-30T15:34:56.801Z,58.40
2022-08-30T15:38:04.286Z,30.37
2022-08-30T15:41:12.790Z,21.70
2022-08-30T15:44:20.609Z,17.40
2022-08-30T15:47:26.729Z,12.47
2022-08-30T15:50:33.027Z,10.30
2022-08-30T15:53:39.173Z,14.15
2022-08-30T15:56:47.957Z,12.05
2022-08-30T15:59:54.566Z,15.88
2022-08-30T16:03:00.889Z,19.30
2022-08-30T16:06:06.662Z,19.17
2022-08-30T16:09:12.584Z,34.13
2022-08-30T16:12:23.738Z,17.98
2022-08-30T16:15:28.610Z,24.65
2022-08-30T16:18:35.866Z,30.35
2022-08-30T16:21:47.606Z,41.05
2022-08-30T16:24:54.601Z,33.18
2022-08-30T16:28:01.565Z,12.82
2022-08-30T16:31:08.314Z,12.55
2022-08-30T16:34:14.011Z,16.48
2022-08-30T16:37:20.901Z,15.80
2022-08-30T16:40:28.613Z,16.87
2022-08-30T16:43:36.420Z,17.25
2022-08-30T16:46:42.262Z,16.07
2022-08-30T16:49:48.093Z,18.23
2022-08-30T16:52:54.162Z,14.45
2022-08-30T16:56:02.820Z,10.53
2022-08-30T16:59:11.554Z,16.00
2022-08-30T17:02:17.483Z,16.50
2022-08-30T17:05:25.449Z,14.85
2022-08-30T17:08:32.507Z,17.85
2022-08-30T17:11:38.286Z,15.10
2022-08-30T17:14:49.571Z,23.73
2022-08-30T17:17:54.779Z,71.37
2022-08-30T17:21:02.297Z,62.25
2022-08-30T17:24:09.372Z,37.15
2022-08-30T17:27:14.937Z,24.27
2022-08-30T17:30:23.472Z,17.23
2022-08-30T17:33:29.213Z,13.43
2022-08-30T17:36:36.619Z,14.00
2022-08-30T17:39:45.430Z,14.70
2022-08-30T17:42:52.715Z,39.45
2022-08-30T17:45:58.847Z,25.05
2022-08-30T17:49:05.163Z,26.68
2022-08-30T17:52:12.703Z,22.58
2022-08-30T17:55:19.947Z,23.12
2022-08-30T17:58:25.022Z,17.50
2022-08-30T18:01:33.067Z,21.85
2022-08-30T18:04:39.599Z,15.90
2022-08-30T18:07:47.316Z,15.75
2022-08-30T18:10:55.176Z,16.15
2022-08-30T18:14:01.641Z,20.68
2022-08-30T18:17:09.738Z,17.27
2022-08-30T18:20:15.867Z,16.57
2022-08-30T18:23:24.195Z,16.85
2022-08-30T18:26:31.891Z,21.65
2022-08-30T18:29:38.755Z,17.05
2022-08-30T18:32:45.034Z,17.95
2022-08-30T18:35:51.431Z,21.20
2022-08-30T18:39:01.581Z,16.05
2022-08-30T18:42:08.821Z,16.12
2022-08-30T18:45:16.893Z,11.60
2022-08-30T18:48:24.656Z,11.73
2022-08-30T18:51:35.301Z,16.17
2022-08-30T18:54:42.813Z,9.65
2022-08-30T18:57:53.993Z,12.30
2022-08-30T19:01:00.651Z,10.03
2022-08-30T19:04:08.706Z,9.10
2022-08-30T19:07:15.177Z,8.73
2022-08-30T19:10:21.294Z,10.18
2022-08-30T19:13:28.688Z,12.07
2022-08-30T19:16:35.587Z,9.58
2022-08-30T19:19:46.465Z,9.58
2022-08-30T19:23:09.973Z,7.53
2022-08-30T19:25:59.881Z,11.95
2022-08-30T19:29:07.857Z,8.85
2022-08-30T19:32:14.487Z,11.33
2022-08-30T19:35:20.306Z,10.18
2022-08-30T19:38:26.619Z,9.45
2022-08-30T19:41:32.649Z,10.08
2022-08-30T19:44:38.162Z,12.93
2022-08-30T19:47:44.083Z,13.05
2022-08-30T19:50:51.077Z,8.78
2022-08-30T19:53:58.651Z,11.00
2022-08-30T19:57:06.070Z,10.35
2022-08-30T20:00:12.787Z,12.20
2022-08-30T20:03:19.731Z,9.33
2022-08-30T20:06:26.042Z,8.20
2022-08-30T20:09:33.035Z,9.80
2022-08-30T20:12:45.132Z,9.58
2022-08-30T20:15:52.786Z,12.37
2022-08-30T20:18:58.411Z,10.30
2022-08-30T20:22:08.018Z,9.30
2022-08-30T20:25:14.855Z,9.03
2022-08-30T20:28:19.329Z,9.73
2022-08-30T20:31:26.247Z,9.75
2022-08-30T20:34:35.348Z,7.42
2022-08-30T20:37:41.034Z,8.50
2022-08-30T20:40:49.243Z,10.40
2022-08-30T20:43:56.210Z,8.23
2022-08-30T20:47:01.545Z,9.98
2022-08-30T20:50:08.001Z,11.05
2022-08-30T20:53:16.018Z,10.55
2022-08-30T20:56:33.349Z,10.25
2022-08-30T20:59:35.618Z,9.15
2022-08-30T21:02:46.251Z,14.10
2022-08-30T21:05:50.511Z,9.75
2022-08-30T21:08:58.502Z,11.00
2022-08-30T21:12:05.176Z,7.15
2022-08-30T21:15:36.373Z,9.20
2022-08-30T21:18:20.789Z,10.82
2022-08-30T21:21:29.722Z,8.25
2022-08-30T21:24:36.401Z,8.80
2022-08-30T21:27:42.858Z,8.28
2022-08-30T21:30:49.271Z,8.20
2022-08-30T21:33:54.980Z,8.63
2022-08-30T21:37:02.796Z,10.08
2022-08-30T21:40:08.785Z,10.03
2022-08-30T21:43:17.169Z,8.05
2022-08-30T21:46:26.677Z,8.10
2022-08-30T21:49:35.232Z,7.58
2022-08-30T21:52:43.337Z,10.48
2022-08-30T21:55:50.629Z,9.63
2022-08-30T21:58:58.735Z,9.33
2022-08-30T22:02:05.715Z,9.05
2022-08-30T22:05:12.695Z,11.00
2022-08-30T22:08:20.802Z,13.00
2022-08-30T22:11:29.550Z,11.22
2022-08-30T22:14:38.048Z,13.35
2022-08-30T22:17:45.104Z,9.55
2022-08-30T22:20:52.015Z,11.88
2022-08-30T22:24:01.515Z,12.33
2022-08-30T22:27:07.311Z,9.15
2022-08-30T22:30:12.765Z,13.85
2022-08-30T22:33:18.477Z,9.90
2022-08-30T22:36:38.525Z,15.15
2022-08-30T22:39:45.288Z,11.38
2022-08-30T22:42:52.339Z,13.45
2022-08-30T22:45:59.880Z,10.82
2022-08-30T22:49:05.250Z,11.00
2022-08-30T22:52:10.458Z,10.28
2022-08-30T22:55:15.487Z,9.25
2022-08-30T22:58:21.803Z,11.15
2022-08-30T23:01:45.545Z,10.00
2022-08-30T23:04:54.248Z,13.53
2022-08-30T23:08:00.014Z,11.33
2022-08-30T23:11:06.578Z,13.30
2022-08-30T23:14:14.195Z,12.65
2022-08-30T23:17:19.618Z,10.70
2022-08-30T23:20:26.499Z,12.20
2022-08-30T23:23:51.708Z,12.33
2022-08-30T23:27:16.930Z,11.50
2022-08-30T23:30:41.525Z,10.58
2022-08-30T23:34:04.890Z,12.20
2022-08-30T23:37:29.689Z,14.80
2022-08-30T23:40:54.183Z,11.50
2022-08-30T23:44:18.581Z,12.37
2022-08-30T23:47:43.070Z,10.38
2022-08-30T23:51:07.154Z,11.22
2022-08-30T23:54:32.060Z,11.75
2022-08-30T23:57:57.679Z,9.60
